Time;durP1;ratioP1;P1;durP2;ratioP2;P2;SDS_P1;SDS_P2;PMS_P1;PMS_P2;Temp;Humidity;BMP_temperature;BMP_pressure;BME280_temperature;BME280_humidity;BME280_pressure;Samples;Min_cycle;Max_cycle;Signal;HPM_P1;HPM_P2
2022/04/28 00:02:03;;;;;;;11.50;6.10;;;;;7.00;102288.00;;;;10581459;27;20646;-82
2022/04/28 00:07:05;;;;;;;12.90;5.80;;;;;7.00;102284.00;;;;10566412;27;20298;-82
2022/04/28 00:12:10;;;;;;;11.07;5.97;;;;;6.90;102280.00;;;;10565911;27;20206;-83
2022/04/28 00:17:12;;;;;;;16.43;6.47;;;;;6.80;102287.00;;;;10582964;27;20213;-83
2022/04/28 00:22:14;;;;;;;14.30;6.20;;;;;6.70;102293.00;;;;10582971;27;20188;-82
2022/04/28 00:27:16;;;;;;;14.57;6.87;;;;;6.70;102282.00;;;;10599006;27;20203;-83
2022/04/28 00:32:18;;;;;;;9.00;5.67;;;;;6.60;102281.00;;;;10581991;27;20650;-82
2022/04/28 00:37:21;;;;;;;16.90;7.70;;;;;6.60;102278.00;;;;10572597;27;20187;-83
2022/04/28 00:42:23;;;;;;;9.53;6.83;;;;;6.50;102282.00;;;;10538346;28;20239;-83
2022/04/28 00:50:38;;;;;;;19.37;7.50;;;;;6.50;102273.00;;;;10537439;28;20662;-82
2022/04/28 00:52:48;;;;;;;12.03;6.30;;;;;6.40;102279.00;;;;10537739;28;20184;-82
2022/04/28 00:57:52;;;;;;;12.37;6.53;;;;;6.40;102273.00;;;;10520664;28;20188;-83
2022/04/28 01:02:54;;;;;;;13.33;6.93;;;;;6.30;102275.00;;;;10514214;28;20284;-82
2022/04/28 01:07:57;;;;;;;11.47;6.60;;;;;6.20;102268.00;;;;10512877;28;20676;-82
2022/04/28 01:12:59;;;;;;;12.43;6.83;;;;;6.20;102270.00;;;;10495022;28;20189;-83
2022/04/28 01:18:01;;;;;;;10.93;6.70;;;;;6.10;102269.00;;;;10514851;28;20524;-82
2022/04/28 01:23:04;;;;;;;10.90;5.63;;;;;6.10;102269.00;;;;10478899;28;20684;-83
2022/04/28 01:28:07;;;;;;;12.17;6.30;;;;;6.00;102265.00;;;;10551795;28;20818;-83
2022/04/28 01:33:08;;;;;;;9.33;6.13;;;;;5.90;102278.00;;;;10570495;27;20200;-82
2022/04/28 01:38:12;;;;;;;9.93;6.10;;;;;5.90;102282.00;;;;10564139;27;20714;-82
2022/04/28 01:43:14;;;;;;;12.97;6.60;;;;;5.80;102273.00;;;;10521570;28;20219;-83
2022/04/28 01:48:16;;;;;;;10.43;6.30;;;;;5.80;102285.00;;;;10537539;28;20295;-83
2022/04/28 01:58:58;;;;;;;10.07;6.23;;;;;5.60;102278.00;;;;10537990;28;20217;-83
2022/04/28 02:04:16;;;;;;;11.97;6.83;;;;;5.50;102273.00;;;;10565457;27;20199;-83
2022/04/28 02:09:18;;;;;;;17.57;7.73;;;;;5.50;102280.00;;;;10563007;27;20198;-83
2022/04/28 02:14:22;;;;;;;13.43;7.03;;;;;5.40;102282.00;;;;10580810;27;20196;-82
2022/04/28 02:19:54;;;;;;;13.80;7.03;;;;;5.30;102275.00;;;;10528056;27;20316;-82
2022/04/28 02:24:56;;;;;;;14.23;6.80;;;;;5.30;102281.00;;;;10559502;27;20674;-82
2022/04/28 02:29:59;;;;;;;15.67;6.37;;;;;5.20;102283.00;;;;10533153;27;20539;-83
2022/04/28 02:35:03;;;;;;;15.87;6.77;;;;;5.10;102277.00;;;;10520317;27;20194;-82
2022/04/28 02:40:06;;;;;;;12.50;7.33;;;;;5.10;102273.00;;;;10487842;28;20208;-82
2022/04/28 02:45:13;;;;;;;14.03;6.73;;;;;5.00;102286.00;;;;10519638;28;20269;-82
2022/04/28 02:50:23;;;;;;;17.43;6.77;;;;;5.00;102275.00;;;;10498068;28;20243;-82
2022/04/28 02:55:25;;;;;;;14.60;7.57;;;;;4.90;102265.00;;;;10490654;28;20265;-82
2022/04/28 03:00:27;;;;;;;13.80;7.37;;;;;4.80;102264.00;;;;10540241;28;20192;-81
2022/04/28 03:10:46;;;;;;;16.60;7.87;;;;;4.80;102270.00;;;;10573962;28;20235;-82
2022/04/28 03:11:03;;;;;;;13.33;7.47;;;;;4.70;102278.00;;;;10543181;28;20647;-81
2022/04/28 03:16:06;;;;;;;12.40;7.00;;;;;4.70;102272.00;;;;10475053;28;20196;-81
2022/04/28 03:21:33;;;;;;;17.77;7.63;;;;;4.50;102278.00;;;;10494061;28;20609;-81
2022/04/28 03:26:38;;;;;;;13.47;7.53;;;;;4.50;102270.00;;;;10506322;28;20241;-81
2022/04/28 03:31:44;;;;;;;12.27;7.57;;;;;4.40;102281.00;;;;10530534;28;20200;-81
2022/04/28 03:37:06;;;;;;;14.50;8.03;;;;;4.40;102283.00;;;;10528729;28;20184;-82
2022/04/28 03:42:11;;;;;;;18.83;9.40;;;;;4.40;102275.00;;;;10525341;28;20212;-82
2022/04/28 03:47:13;;;;;;;18.40;9.03;;;;;4.30;102281.00;;;;10500594;28;20212;-81
2022/04/28 03:52:16;;;;;;;22.50;9.67;;;;;4.20;102284.00;;;;10500360;28;20280;-81
2022/04/28 03:57:18;;;;;;;17.40;8.37;;;;;4.20;102282.00;;;;10500255;28;20239;-82
2022/04/28 04:02:20;;;;;;;14.87;10.00;;;;;4.10;102280.00;;;;10551898;27;20298;-82
2022/04/28 04:07:28;;;;;;;18.43;9.03;;;;;4.10;102271.00;;;;10583579;27;20685;-81
2022/04/28 04:13:02;;;;;;;15.83;9.10;;;;;4.10;102290.00;;;;10565816;27;20195;-81
2022/04/28 04:18:04;;;;;;;16.03;8.90;;;;;4.10;102273.00;;;;10582867;27;20395;-82
2022/04/28 04:23:23;;;;;;;19.10;9.20;;;;;4.10;102277.00;;;;10568212;27;20719;-82
2022/04/28 04:28:25;;;;;;;17.77;8.97;;;;;4.10;102278.00;;;;10581579;27;20555;-82
2022/04/28 04:33:31;;;;;;;18.27;8.83;;;;;4.10;102287.00;;;;10599991;27;20235;-82
2022/04/28 04:38:33;;;;;;;18.00;8.60;;;;;4.10;102292.00;;;;10546546;27;20180;-81
2022/04/28 04:43:35;;;;;;;21.13;8.87;;;;;4.10;102294.00;;;;10522686;28;20238;-83
2022/04/28 04:48:37;;;;;;;20.10;9.07;;;;;4.20;102295.00;;;;10497247;28;20209;-83
2022/04/28 04:53:58;;;;;;;14.73;9.13;;;;;4.30;102308.00;;;;10518168;28;20604;-82
2022/04/28 04:59:05;;;;;;;18.00;9.27;;;;;4.50;102312.00;;;;10555276;28;20191;-82
2022/04/28 05:04:07;;;;;;;19.70;10.03;;;;;4.70;102314.00;;;;10497779;28;20215;-82
2022/04/28 05:09:39;;;;;;;19.43;10.43;;;;;4.90;102317.00;;;;10497707;28;20193;-83
2022/04/28 05:14:42;;;;;;;17.50;9.90;;;;;5.30;102322.00;;;;10513880;28;20651;-83
2022/04/28 05:19:44;;;;;;;15.33;10.20;;;;;5.70;102335.00;;;;10496024;28;20193;-83
2022/04/28 05:25:06;;;;;;;15.60;9.97;;;;;6.30;102342.00;;;;10479632;28;20219;-83
2022/04/28 05:30:26;;;;;;;14.30;9.87;;;;;6.60;102346.00;;;;10536408;27;20262;-82
2022/04/28 05:35:41;;;;;;;19.93;10.17;;;;;6.90;102352.00;;;;10598445;27;20176;-83
2022/04/28 05:40:44;;;;;;;18.80;10.23;;;;;7.20;102355.00;;;;10580412;27;20218;-83
2022/04/28 05:45:46;;;;;;;17.50;10.50;;;;;7.60;102363.00;;;;10567948;27;20204;-83
2022/04/28 05:50:48;;;;;;;19.23;10.13;;;;;7.90;102361.00;;;;10478921;28;20663;-83
2022/04/28 05:55:53;;;;;;;17.20;9.87;;;;;8.20;102369.00;;;;10480923;28;20181;-84
2022/04/28 06:00:59;;;;;;;19.40;10.60;;;;;8.70;102367.00;;;;10537002;28;20223;-83
2022/04/28 06:06:03;;;;;;;20.27;9.03;;;;;9.20;102385.00;;;;10540016;28;20736;-83
2022/04/28 06:11:05;;;;;;;18.93;9.63;;;;;9.70;102391.00;;;;10541318;28;20200;-84
2022/04/28 06:16:08;;;;;;;15.57;9.73;;;;;10.20;102386.00;;;;10522648;28;20191;-83
2022/04/28 06:21:25;;;;;;;16.33;9.10;;;;;10.60;102396.00;;;;10541946;28;20207;-84
2022/04/28 06:26:27;;;;;;;17.37;9.43;;;;;10.80;102399.00;;;;10539862;28;20215;-84
2022/04/28 06:31:29;;;;;;;16.77;9.90;;;;;11.20;102417.00;;;;10522985;28;20205;-84
2022/04/28 06:37:10;;;;;;;21.47;9.97;;;;;11.60;102420.00;;;;10544211;28;20202;-84
2022/04/28 06:42:12;;;;;;;16.57;9.53;;;;;12.10;102420.00;;;;10541301;28;20208;-83
2022/04/28 06:47:37;;;;;;;15.50;9.97;;;;;12.40;102426.00;;;;10504441;28;20409;-84
2022/04/28 06:53:00;;;;;;;14.00;10.00;;;;;12.70;102421.00;;;;10528062;28;20215;-83
2022/04/28 06:58:06;;;;;;;18.13;10.73;;;;;12.90;102438.00;;;;10498813;28;20311;-83
2022/04/28 07:03:13;;;;;;;18.40;10.27;;;;;13.40;102448.00;;;;10562019;28;20659;-82
2022/04/28 07:08:17;;;;;;;16.10;11.40;;;;;13.70;102446.00;;;;10546185;27;20207;-83
2022/04/28 07:13:22;;;;;;;17.83;11.53;;;;;14.20;102452.00;;;;10535000;28;20208;-84
2022/04/28 07:18:45;;;;;;;17.60;10.50;;;;;14.70;102454.00;;;;10505779;28;20269;-84
2022/04/28 07:23:47;;;;;;;16.70;11.27;;;;;14.90;102461.00;;;;10518112;28;20295;-82
2022/04/28 07:28:50;;;;;;;17.13;10.87;;;;;15.10;102463.00;;;;10525278;28;20758;-83
2022/04/28 07:33:52;;;;;;;15.63;11.13;;;;;15.60;102461.00;;;;10580940;27;20787;-83
2022/04/28 07:39:13;;;;;;;18.07;11.47;;;;;15.80;102466.00;;;;10546349;28;20188;-83
2022/04/28 07:44:41;;;;;;;15.40;10.23;;;;;15.90;102464.00;;;;10567941;27;20269;-83
2022/04/28 07:49:44;;;;;;;15.67;11.43;;;;;16.10;102472.00;;;;10579309;27;20203;-83
2022/04/28 07:54:47;;;;;;;16.37;11.70;;;;;16.50;102474.00;;;;10529868;28;20189;-81
2022/04/28 07:59:51;;;;;;;16.60;10.88;;;;;17.10;102481.00;;;;10544346;27;20636;-83
2022/04/28 08:04:55;;;;;;;18.97;11.30;;;;;17.50;102479.00;;;;10556267;28;20209;-84
2022/04/28 08:09:59;;;;;;;18.33;12.57;;;;;17.80;102486.00;;;;10545583;27;20189;-83
2022/04/28 08:15:02;;;;;;;20.77;12.77;;;;;18.00;102485.00;;;;10520974;28;20228;-83
2022/04/28 08:20:05;;;;;;;17.40;10.77;;;;;18.40;102496.00;;;;10528548;28;20189;-85
2022/04/28 08:25:08;;;;;;;17.27;11.13;;;;;18.90;102490.00;;;;10509094;28;20202;-84
2022/04/28 08:30:11;;;;;;;15.27;10.98;;;;;19.20;102491.00;;;;10557464;27;20192;-84
2022/04/28 08:35:13;;;;;;;17.23;11.75;;;;;19.20;102495.00;;;;10553770;28;20284;-84
2022/04/28 08:40:16;;;;;;;13.38;11.10;;;;;19.70;102492.00;;;;10535820;28;20216;-84
2022/04/28 08:45:27;;;;;;;14.93;10.88;;;;;20.00;102495.00;;;;10538676;28;20200;-84
2022/04/28 08:50:48;;;;;;;16.02;11.88;;;;;20.60;102494.00;;;;10549544;28;20647;-84
2022/04/28 08:55:55;;;;;;;12.88;11.52;;;;;20.60;102493.00;;;;10528902;27;20342;-85
2022/04/28 09:00:58;;;;;;;19.13;10.80;;;;;20.80;102494.00;;;;10544391;27;20185;-84
2022/04/28 09:06:21;;;;;;;13.25;10.85;;;;;21.00;102499.00;;;;10554396;28;20204;-84
2022/04/28 09:11:37;;;;;;;15.20;11.73;;;;;21.20;102491.00;;;;10535961;27;20196;-82
2022/04/28 09:17:00;;;;;;;16.98;11.65;;;;;21.00;102485.00;;;;10530883;28;20230;-85
2022/04/28 09:22:09;;;;;;;12.82;11.27;;;;;21.10;102482.00;;;;10531006;28;20300;-83
2022/04/28 09:27:13;;;;;;;15.50;11.75;;;;;21.50;102485.00;;;;10529921;28;20216;-83
2022/04/28 09:32:16;;;;;;;14.77;11.02;;;;;21.60;102485.00;;;;10528436;27;20762;-83
2022/04/28 09:37:58;;;;;;;15.82;11.32;;;;;21.40;102476.00;;;;10540650;27;20176;-83
2022/04/28 09:43:20;;;;;;;14.98;11.35;;;;;21.60;102476.00;;;;10535592;28;20204;-81
2022/04/28 09:48:27;;;;;;;13.38;10.70;;;;;21.50;102476.00;;;;10537278;27;20795;-84
2022/04/28 09:53:34;;;;;;;15.25;10.52;;;;;22.20;102469.00;;;;10516125;27;20216;-85
2022/04/28 09:59:05;;;;;;;15.25;11.10;;;;;22.30;102468.00;;;;10536289;28;20536;-85
2022/04/28 10:04:09;;;;;;;16.30;10.38;;;;;22.50;102467.00;;;;10506592;28;20674;-85
2022/04/28 10:09:32;;;;;;;14.32;10.45;;;;;23.00;102469.00;;;;10541618;27;20241;-84
2022/04/28 10:14:42;;;;;;;16.98;10.30;;;;;23.40;102453.00;;;;10522993;28;20196;-85
2022/04/28 10:19:57;;;;;;;13.98;10.45;;;;;23.50;102458.00;;;;10535260;28;20192;-84
2022/04/28 10:36:15;;;;;;;18.23;11.13;;;;;23.70;102450.00;;;;10589237;27;20190;-84
2022/04/28 10:41:26;;;;;;;12.88;10.70;;;;;24.10;102429.00;;;;10574312;27;20215;-84
2022/04/28 10:46:30;;;;;;;12.48;11.00;;;;;24.40;102443.00;;;;10535707;28;20212;-84
2022/04/28 10:51:33;;;;;;;15.57;11.73;;;;;24.20;102439.00;;;;10497016;28;20265;-84
2022/04/28 10:56:44;;;;;;;17.45;11.88;;;;;24.50;102435.00;;;;10528743;28;20195;-84
2022/04/28 11:01:46;;;;;;;14.50;10.93;;;;;24.80;102431.00;;;;10538190;28;20244;-84
2022/04/28 11:06:55;;;;;;;12.32;10.70;;;;;24.80;102425.00;;;;10537700;28;20208;-84
2022/04/28 11:12:07;;;;;;;14.50;11.13;;;;;24.90;102424.00;;;;10552792;28;20245;-83
2022/04/28 11:17:11;;;;;;;19.80;11.85;;;;;25.10;102428.00;;;;10529235;28;20185;-83
2022/04/28 11:22:14;;;;;;;13.90;11.32;;;;;25.40;102420.00;;;;10559761;28;20196;-84
2022/04/28 11:27:21;;;;;;;22.95;11.90;;;;;25.40;102424.00;;;;10519146;28;20268;-83
2022/04/28 11:32:32;;;;;;;18.02;11.02;;;;;25.50;102419.00;;;;10522677;28;20212;-84
2022/04/28 11:37:37;;;;;;;12.35;10.85;;;;;25.40;102416.00;;;;10511983;28;20254;-83
2022/04/28 11:42:41;;;;;;;12.27;10.32;;;;;25.40;102415.00;;;;10512632;28;20216;-83
2022/04/28 11:47:45;;;;;;;13.20;11.30;;;;;25.50;102414.00;;;;10552392;28;20759;-83
2022/04/28 11:52:59;;;;;;;14.85;10.98;;;;;25.90;102419.00;;;;10552796;28;20230;-83
2022/04/28 11:58:02;;;;;;;13.15;11.77;;;;;25.80;102416.00;;;;10537584;28;20249;-82
2022/04/28 12:03:05;;;;;;;14.80;11.15;;;;;26.00;102412.00;;;;10529629;27;20199;-82
2022/04/28 12:08:07;;;;;;;16.65;11.60;;;;;25.70;102407.00;;;;10553997;27;20204;-82
2022/04/28 12:23:56;;;;;;;15.60;11.48;;;;;26.20;102414.00;;;;10519470;28;20211;-81
2022/04/28 12:29:11;;;;;;;15.23;11.52;;;;;26.10;102412.00;;;;10528687;28;20560;-82
2022/04/28 12:34:22;;;;;;;15.50;11.70;;;;;26.00;102409.00;;;;10535540;27;20199;-82
2022/04/28 12:39:28;;;;;;;12.98;11.57;;;;;26.10;102401.00;;;;10555561;28;20241;-83
2022/04/28 12:44:44;;;;;;;17.55;12.35;;;;;26.30;102401.00;;;;10527838;28;20192;-83
2022/04/28 12:49:48;;;;;;;13.30;11.38;;;;;26.60;102403.00;;;;10535363;27;20208;-84
2022/04/28 12:55:09;;;;;;;13.73;12.32;;;;;26.80;102396.00;;;;10531322;27;20562;-84
2022/04/28 13:00:11;;;;;;;16.40;12.88;;;;;27.00;102381.00;;;;10574176;27;20188;-83
2022/04/28 13:05:15;;;;;;;13.18;11.25;;;;;26.60;102382.00;;;;10525930;28;20630;-83
2022/04/28 13:10:37;;;;;;;13.27;11.27;;;;;27.10;102372.00;;;;10498839;28;20223;-84
2022/04/28 13:15:38;;;;;;;14.68;13.18;;;;;27.60;102370.00;;;;10566517;27;20612;-83
2022/04/28 13:20:40;;;;;;;17.67;12.23;;;;;27.60;102365.00;;;;10541503;27;20200;-83
2022/04/28 13:25:42;;;;;;;14.88;11.63;;;;;28.40;102364.00;;;;10530341;27;20576;-83
2022/04/28 13:30:44;;;;;;;13.52;12.18;;;;;29.20;102357.00;;;;10536581;28;20243;-84
2022/04/28 13:35:47;;;;;;;16.42;11.20;;;;;30.90;102352.00;;;;10511093;28;20185;-83
2022/04/28 13:40:49;;;;;;;16.10;11.23;;;;;31.60;102342.00;;;;10536642;27;20212;-83
2022/04/28 13:45:51;;;;;;;12.77;11.43;;;;;32.20;102333.00;;;;10539083;28;20644;-83
2022/04/28 13:50:54;;;;;;;15.55;12.45;;;;;33.10;102336.00;;;;10521804;28;20226;-83
2022/04/28 13:56:06;;;;;;;16.55;12.93;;;;;33.00;102330.00;;;;10523611;28;20211;-83
2022/04/28 14:01:08;;;;;;;12.35;10.93;;;;;32.80;102332.00;;;;10518022;28;20579;-84
2022/04/28 14:06:11;;;;;;;14.90;13.40;;;;;30.10;102329.00;;;;10561813;27;20204;-84
2022/04/28 14:11:13;;;;;;;14.32;11.65;;;;;32.10;102318.00;;;;10539597;27;20270;-84
2022/04/28 14:16:15;;;;;;;15.63;12.68;;;;;32.40;102312.00;;;;10534680;27;20244;-82
2022/04/28 14:21:19;;;;;;;13.52;12.13;;;;;32.10;102305.00;;;;10506854;28;20539;-82
2022/04/28 14:26:22;;;;;;;12.57;10.82;;;;;32.50;102310.00;;;;10552629;27;20205;-82
2022/04/28 14:31:24;;;;;;;13.23;11.52;;;;;33.60;102308.00;;;;10510137;28;20813;-82
2022/04/28 14:36:49;;;;;;;13.45;12.05;;;;;33.90;102299.00;;;;10563196;28;20546;-82
2022/04/28 14:41:52;;;;;;;14.88;11.55;;;;;33.10;102302.00;;;;10513913;28;20825;-82
2022/04/28 14:47:14;;;;;;;14.55;11.32;;;;;30.60;102294.00;;;;10536723;28;20208;-82
2022/04/28 14:52:26;;;;;;;15.70;12.05;;;;;28.90;102300.00;;;;10534678;28;20601;-82
2022/04/28 14:57:33;;;;;;;14.38;11.93;;;;;27.70;102305.00;;;;10535860;28;20199;-82
2022/04/28 15:02:35;;;;;;;18.65;12.00;;;;;27.50;102297.00;;;;10510023;28;20200;-83
2022/04/28 15:07:37;;;;;;;14.48;11.65;;;;;27.30;102303.00;;;;10493192;28;20209;-82
2022/04/28 15:12:39;;;;;;;15.65;12.95;;;;;26.40;102318.00;;;;10510664;28;20250;-81
2022/04/28 15:17:51;;;;;;;12.98;11.10;;;;;24.70;102306.00;;;;10514814;28;20185;-83
2022/04/28 15:22:56;;;;;;;13.95;11.45;;;;;23.90;102306.00;;;;10540924;28;20192;-83
2022/04/28 15:27:58;;;;;;;16.17;11.30;;;;;23.90;102306.00;;;;10530300;28;20216;-82
2022/04/28 15:33:00;;;;;;;17.30;12.88;;;;;23.30;102304.00;;;;10546658;28;20201;-83
2022/04/28 15:38:03;;;;;;;15.00;11.07;;;;;23.30;102294.00;;;;10520628;28;20640;-82
2022/04/28 15:43:06;;;;;;;18.80;10.65;;;;;24.60;102290.00;;;;10535832;28;20220;-82
2022/04/28 15:48:08;;;;;;;17.80;10.80;;;;;25.40;102293.00;;;;10607032;27;20227;-82
2022/04/28 15:53:11;;;;;;;14.68;10.38;;;;;23.80;102297.00;;;;10578906;27;20211;-82
2022/04/28 15:58:13;;;;;;;14.70;10.38;;;;;22.70;102293.00;;;;10559990;28;20192;-83
2022/04/28 16:03:15;;;;;;;15.10;10.27;;;;;22.30;102294.00;;;;10578167;27;20234;-82
2022/04/28 16:08:17;;;;;;;18.38;10.48;;;;;22.10;102304.00;;;;10583772;27;20200;-83
2022/04/28 16:13:21;;;;;;;16.33;11.95;;;;;21.30;102292.00;;;;10539515;28;20734;-83
2022/04/28 16:18:23;;;;;;;14.07;10.57;;;;;20.80;102295.00;;;;10546658;28;20181;-82
2022/04/28 16:23:25;;;;;;;15.02;11.10;;;;;20.50;102296.00;;;;10529522;28;20675;-82
2022/04/28 16:28:27;;;;;;;12.38;10.60;;;;;20.40;102297.00;;;;10522696;28;20348;-82
2022/04/28 16:33:30;;;;;;;15.95;11.27;;;;;20.30;102297.00;;;;10550006;28;20185;-83
2022/04/28 16:38:32;;;;;;;13.80;11.32;;;;;20.10;102293.00;;;;10569352;27;20188;-83
2022/04/28 16:43:34;;;;;;;17.40;11.15;;;;;19.90;102301.00;;;;10586490;27;20382;-83
2022/04/28 16:48:36;;;;;;;16.80;10.98;;;;;19.80;102302.00;;;;10535986;28;20216;-83
2022/04/28 16:53:38;;;;;;;19.38;10.57;;;;;19.60;102306.00;;;;10566790;27;20236;-83
2022/04/28 16:58:41;;;;;;;14.43;10.25;;;;;19.50;102308.00;;;;10536239;27;20199;-83
2022/04/28 17:09:04;;;;;;;17.58;12.18;;;;;19.10;102323.00;;;;10541060;28;20566;-81
2022/04/28 17:14:08;;;;;;;14.02;12.05;;;;;18.90;102329.00;;;;10556479;28;20229;-81
2022/04/28 17:19:10;;;;;;;17.77;11.80;;;;;18.70;102318.00;;;;10541417;28;20192;-82
2022/04/28 17:24:14;;;;;;;17.25;11.55;;;;;18.40;102320.00;;;;10540572;28;20213;-82
2022/04/28 17:29:18;;;;;;;16.80;12.10;;;;;18.20;102325.00;;;;10556950;28;20204;-81
2022/04/28 17:34:20;;;;;;;17.05;12.48;;;;;18.00;102319.00;;;;10573764;28;20237;-82
2022/04/28 17:39:22;;;;;;;14.20;10.70;;;;;17.70;102320.00;;;;10601440;27;20180;-82
2022/04/28 17:44:24;;;;;;;20.67;11.10;;;;;17.40;102323.00;;;;10612474;27;20195;-81
2022/04/28 17:49:26;;;;;;;17.63;10.30;;;;;17.20;102327.00;;;;10573545;28;20317;-81
2022/04/28 17:54:28;;;;;;;15.70;10.15;;;;;17.00;102317.00;;;;10594863;27;20260;-81
2022/04/28 18:04:51;;;;;;;14.88;9.63;;;;;16.50;102322.00;;;;10537150;28;20203;-81
2022/04/28 18:09:53;;;;;;;13.63;9.10;;;;;16.30;102331.00;;;;10531645;28;20240;-81
2022/04/28 18:14:55;;;;;;;11.70;8.30;;;;;16.10;102332.00;;;;10546925;28;20558;-81
2022/04/28 18:19:58;;;;;;;16.37;9.33;;;;;15.90;102340.00;;;;10554471;28;20188;-80
2022/04/28 18:24:59;;;;;;;14.90;8.07;;;;;15.70;102332.00;;;;10572697;28;20199;-81
2022/04/28 18:30:06;;;;;;;16.07;8.43;;;;;15.50;102332.00;;;;10554712;28;20303;-81
2022/04/28 18:35:08;;;;;;;16.03;8.13;;;;;15.30;102344.00;;;;10554849;28;20204;-81
2022/04/28 18:45:31;;;;;;;13.40;8.60;;;;;14.90;102359.00;;;;10598983;27;20203;-81
2022/04/28 18:50:33;;;;;;;14.17;8.13;;;;;14.70;102360.00;;;;10555517;28;20233;-81
2022/04/28 18:55:41;;;;;;;15.47;8.13;;;;;14.50;102365.00;;;;10603406;27;20216;-81
2022/04/28 19:00:43;;;;;;;10.53;7.37;;;;;14.30;102368.00;;;;10576191;28;20204;-82
2022/04/28 19:05:46;;;;;;;19.77;8.30;;;;;14.20;102367.00;;;;10537726;28;20246;-81
2022/04/28 19:10:48;;;;;;;14.00;7.90;;;;;14.00;102377.00;;;;10539414;28;20211;-81
2022/04/28 19:15:50;;;;;;;14.80;7.87;;;;;13.90;102378.00;;;;10536603;28;20709;-81
2022/04/28 19:20:52;;;;;;;12.27;7.60;;;;;13.80;102387.00;;;;10520398;28;20189;-81
2022/04/28 19:25:54;;;;;;;15.60;7.53;;;;;13.60;102391.00;;;;10520260;28;20197;-81
2022/04/28 19:30:56;;;;;;;13.03;7.17;;;;;13.50;102390.00;;;;10534362;28;20242;-81
2022/04/28 19:35:58;;;;;;;13.13;7.27;;;;;13.40;102408.00;;;;10560708;28;20218;-81
2022/04/28 19:41:00;;;;;;;11.07;6.67;;;;;13.30;102408.00;;;;10599830;27;20230;-81
2022/04/28 19:46:02;;;;;;;9.57;7.03;;;;;13.30;102406.00;;;;10602911;27;20718;-80
2022/04/28 19:51:05;;;;;;;16.63;7.30;;;;;13.20;102394.00;;;;10602001;27;20219;-80
2022/04/28 19:56:09;;;;;;;11.43;6.67;;;;;13.20;102401.00;;;;10583369;28;20188;-81
2022/04/28 20:01:11;;;;;;;13.97;6.70;;;;;13.10;102393.00;;;;10569050;28;20196;-81
2022/04/28 20:06:13;;;;;;;14.63;6.83;;;;;13.00;102402.00;;;;10561026;28;20189;-80
2022/04/28 20:11:17;;;;;;;13.23;7.47;;;;;12.90;102413.00;;;;10559797;28;20208;-81
2022/04/28 20:16:20;;;;;;;13.50;7.63;;;;;12.80;102413.00;;;;10559338;28;20203;-81
2022/04/28 20:21:22;;;;;;;14.33;7.67;;;;;12.70;102401.00;;;;10558938;28;20218;-80
2022/04/28 20:26:24;;;;;;;13.03;7.60;;;;;12.60;102418.00;;;;10560068;28;20249;-80
2022/04/28 20:31:27;;;;;;;15.83;8.83;;;;;12.50;102405.00;;;;10545265;28;20297;-80
2022/04/28 20:36:31;;;;;;;16.40;8.40;;;;;12.40;102407.00;;;;10518639;27;20185;-81
2022/04/28 20:41:33;;;;;;;18.60;9.70;;;;;12.30;102413.00;;;;10616556;27;20654;-81
2022/04/28 20:46:35;;;;;;;16.13;9.90;;;;;12.30;102401.00;;;;10575031;28;20191;-81
2022/04/28 20:51:56;;;;;;;18.17;9.57;;;;;12.20;102402.00;;;;10561297;27;20231;-81
2022/04/28 20:56:58;;;;;;;15.53;10.07;;;;;12.00;102401.00;;;;10616332;27;20244;-80
2022/04/28 21:02:00;;;;;;;14.70;9.43;;;;;11.90;102399.00;;;;10554070;28;20199;-80
2022/04/28 21:07:03;;;;;;;17.33;9.77;;;;;11.80;102410.00;;;;10540123;28;20216;-81
2022/04/28 21:12:05;;;;;;;14.63;8.77;;;;;11.70;102422.00;;;;10557274;28;20241;-81
2022/04/28 21:17:07;;;;;;;19.07;10.07;;;;;11.50;102424.00;;;;10556156;28;20208;-80
2022/04/28 21:22:11;;;;;;;18.47;10.07;;;;;11.40;102424.00;;;;10539084;28;20237;-80
2022/04/28 21:27:14;;;;;;;15.67;9.27;;;;;11.30;102422.00;;;;10555753;28;20235;-80
2022/04/28 21:32:19;;;;;;;21.80;11.07;;;;;11.20;102437.00;;;;10531319;28;20201;-80
2022/04/28 21:37:21;;;;;;;14.73;10.00;;;;;11.10;102427.00;;;;10516179;27;20196;-80
2022/04/28 21:42:23;;;;;;;15.23;10.60;;;;;11.00;102432.00;;;;10512936;28;20213;-80
2022/04/28 21:47:25;;;;;;;15.37;10.23;;;;;10.90;102434.00;;;;10543579;28;20228;-80
2022/04/28 21:52:27;;;;;;;19.30;10.50;;;;;10.90;102438.00;;;;10554313;28;20192;-80
2022/04/28 21:57:29;;;;;;;20.03;10.70;;;;;10.80;102428.00;;;;10538670;28;20184;-80
2022/04/28 22:02:32;;;;;;;18.87;10.70;;;;;10.70;102440.00;;;;10575654;27;20198;-79
2022/04/28 22:12:59;;;;;;;19.53;9.60;;;;;10.60;102428.00;;;;10595021;27;20266;-79
2022/04/28 22:18:01;;;;;;;16.33;10.90;;;;;10.50;102440.00;;;;10595099;27;20188;-80
2022/04/28 22:23:03;;;;;;;15.57;10.37;;;;;10.50;102443.00;;;;10597141;27;20191;-80
2022/04/28 22:28:05;;;;;;;17.63;10.00;;;;;10.40;102440.00;;;;10580003;27;20206;-80
2022/04/28 22:33:07;;;;;;;16.30;10.50;;;;;10.40;102437.00;;;;10546585;28;20203;-80
2022/04/28 22:38:10;;;;;;;19.03;11.03;;;;;10.30;102439.00;;;;10553783;27;20184;-80
2022/04/28 22:43:12;;;;;;;13.70;9.57;;;;;10.20;102439.00;;;;10553775;28;20269;-81
2022/04/28 22:48:14;;;;;;;19.57;10.13;;;;;10.20;102443.00;;;;10570293;28;20299;-80
2022/04/28 22:53:16;;;;;;;19.70;10.73;;;;;10.10;102433.00;;;;10535014;28;20241;-80
2022/04/28 22:58:37;;;;;;;17.67;10.93;;;;;10.00;102444.00;;;;10571524;28;20753;-81
2022/04/28 23:03:40;;;;;;;20.20;11.57;;;;;9.80;102444.00;;;;10515848;28;20208;-81
2022/04/28 23:08:42;;;;;;;17.43;9.93;;;;;9.70;102438.00;;;;10508398;28;20584;-81
2022/04/28 23:13:44;;;;;;;18.90;11.13;;;;;9.70;102428.00;;;;10507969;28;20199;-80
2022/04/28 23:18:46;;;;;;;17.20;11.67;;;;;9.50;102437.00;;;;10510474;28;20226;-80
2022/04/28 23:23:49;;;;;;;18.83;11.37;;;;;9.40;102428.00;;;;10534192;28;20196;-81
2022/04/28 23:28:51;;;;;;;15.47;12.00;;;;;9.40;102419.00;;;;10556372;28;20274;-80
2022/04/28 23:39:15;;;;;;;15.97;11.53;;;;;9.30;102427.00;;;;10524468;28;20189;-80
2022/04/28 23:44:18;;;;;;;17.17;11.57;;;;;9.30;102422.00;;;;10514794;28;20200;-80
2022/04/28 23:49:20;;;;;;;18.50;12.60;;;;;9.20;102420.00;;;;10565756;28;20212;-80
2022/04/28 23:59:44;;;;;;;16.47;11.50;;;;;9.00;102415.00;;;;10517419;28;20196;-80
